ADDS METAR Data INFO
IDs: Format: Raw Decoded Include TAF

Data at: 2344 UTC 15 Dec 2017

KFEP 152335Z AUTO 21008KT 10SM OVC055 00/M03 A2989 RMK AO2 T10051035
KFEP 152315Z AUTO 22006KT 10SM BKN034 OVC055 M01/M03 A2989 RMK AO2 T10061035
KFEP 152255Z AUTO 22006KT 10SM SCT027 OVC034 00/M03 A2990 RMK AO2 T10051035
KFEP 152235Z AUTO 23005KT 10SM OVC027 00/M03 A2990 RMK AO2 T10051035
KFEP 152215Z AUTO 24006KT 10SM SCT024 SCT029 OVC043 00/M04 A2989 RMK AO2 T10051036
KFEP 152155Z AUTO 24006KT 10SM SCT038 OVC043 00/M04 A2990 RMK AO2 T10051037
KFEP 152135Z AUTO 23007KT 10SM OVC040 00/M04 A2989 RMK AO2 T10051039
KFEP 152115Z AUTO 24008KT 10SM 00/M04 A2989 RMK AO2 T10051041
KFEP 152055Z AUTO 25010G14KT 10SM SCT049 OVC060 00/M04 A2989 RMK AO2 T10051043
KFEP 152035Z AUTO 24011G15KT 10SM SCT020 OVC060 M01/M04 A2989 RMK AO2 T10061045
KFEP 152015Z AUTO 25010G16KT 10SM -SN OVC020 M01/M04 A2989 RMK AO2 T10071045
KFEP 151955Z AUTO 25014G17KT 10SM OVC020 M01/M05 A2990 RMK AO2 T10101046
KFEP 151935Z AUTO 24010G16KT 10SM OVC022 M01/M04 A2990 RMK AO2 T10111045
KFEP 151915Z AUTO 25011KT 10SM BKN024 OVC030 M01/M04 A2990 RMK AO2 T10111045
KFEP 151855Z AUTO 24012G17KT 10SM OVC029 M01/M05 A2991 RMK AO2 T10131049
KFEP 151835Z AUTO 25009KT 10SM -SN OVC027 M01/M05 A2992 RMK AO2 T10151053
KFEP 151815Z AUTO 24007KT 10SM -SN OVC025 M01/M06 A2992 RMK AO2 T10151056
KFEP 151755Z AUTO 25009KT 10SM BKN025 OVC034 M01/M06 A2994 RMK AO2 T10131058 11013 21046
KFEP 151735Z AUTO 25007KT 10SM BKN033 OVC041 M02/M06 A2994 RMK AO2 T10181064
KFEP 151715Z AUTO 24007KT 10SM OVC039 M02/M06 A2995 RMK AO2 T10201065
KFEP 151655Z AUTO 25008KT 10SM SCT028 OVC035 M02/M07 A2996 RMK AO2 T10241067
KFEP 151635Z AUTO 26008KT 10SM BKN028 OVC033 M03/M07 A2996 RMK AO2 T10271071
KFEP 151615Z AUTO 26011KT 10SM BKN028 BKN050 M03/M07 A2997 RMK AO2 T10291074
KFEP 151555Z AUTO 26009KT 10SM SCT042 SCT049 M03/M07 A2996 RMK AO2 T10281075
KFEP 151535Z AUTO 25006KT 10SM OVC040 M03/M08 A2995 RMK AO2 T10351079
KFEP 151515Z AUTO 27009KT 10SM OVC040 M04/M08 A2996 RMK AO2 T10381080
KFEP 151455Z AUTO 27011KT 10SM OVC042 M04/M08 A2996 RMK AO2 T10401081
KFEP 151435Z AUTO 28011KT 10SM OVC042 M04/M08 A2996 RMK AO2 T10401085
KFEP 151415Z AUTO 28011G17KT 10SM SCT032 BKN042 M04/M08 A2996 RMK AO2 T10421085
KFEP 151355Z AUTO 27010G15KT 10SM BKN032 BKN044 M04/M09 A2995 RMK AO2 T10451087
KFEP 151335Z AUTO 28011KT 10SM OVC032 M04/M09 A2995 RMK AO2 T10401087
KFEP 151315Z AUTO 29012KT 10SM OVC030 M04/M09 A2995 RMK AO2 T10401086
KFEP 151255Z AUTO 28010KT 10SM OVC028 M04/M09 A2995 RMK AO2 T10401086
KFEP 151235Z AUTO 28012G19KT 10SM OVC032 M04/M09 A2994 RMK AO2 T10401091
KFEP 151215Z AUTO 30013G19KT 10SM OVC032 M04/M09 A2994 RMK AO2 T10381095
KFEP 151155Z AUTO 30016G22KT 10SM BKN027 OVC032 M04/M09 A2994 RMK AO2 T10381091 11038 21052
KFEP 151135Z AUTO 29012KT 10SM OVC027 M04/M09 A2994 RMK AO2 T10381086
KFEP 151115Z AUTO 28009KT 10SM OVC023 M04/M08 A2994 RMK AO2 T10401076
KFEP 151055Z AUTO 26007KT 10SM OVC021 M04/M08 A2993 RMK AO2 T10421076
KFEP 151035Z AUTO 26008KT 10SM OVC021 M04/M08 A2994 RMK AO2 T10431077
KFEP 151015Z AUTO 28009KT 10SM OVC021 M04/M08 A2994 RMK AO2 T10431078
KFEP 150955Z AUTO 29011G17KT 10SM OVC021 M04/M08 A2994 RMK AO2 T10431080
KFEP 150935Z AUTO 30014G18KT 10SM OVC021 M04/M08 A2996 RMK AO2 T10441082
KFEP 150915Z AUTO 30012G17KT 10SM OVC021 M04/M08 A2996 RMK AO2 T10451083
KFEP 150855Z AUTO 29010G17KT 10SM OVC019 M04/M08 A2996 RMK AO2 T10441081
KFEP 150835Z AUTO 27008KT 10SM OVC019 M04/M07 A2997 RMK AO2 T10431075
KFEP 150815Z AUTO 25007KT 10SM OVC019 M04/M08 A2997 RMK AO2 T10451076
KFEP 150755Z AUTO 25009KT 10SM OVC019 M04/M08 A2996 RMK AO2 T10451078
KFEP 150735Z AUTO 24009KT 10SM OVC021 M05/M08 A2996 RMK AO2 T10471080
KFEP 150715Z AUTO 23008KT 10SM BKN023 OVC030 M05/M08 A2997 RMK AO2 T10481080
KFEP 150655Z AUTO 23009KT 10SM SCT021 OVC032 M05/M08 A2998 RMK AO2 T10501082
KFEP 150635Z AUTO 24007KT 10SM SCT024 OVC034 M05/M08 A2999 RMK AO2 T10511082
KFEP 150615Z AUTO 23009KT 10SM BKN024 BKN034 OVC090 M05/M08 A2999 RMK AO2 T10511084
KFEP 150555Z AUTO 24007KT 10SM OVC024 M05/M08 A3000 RMK AO2 T10511085 11048 21095 410361130
KFEP 150535Z AUTO 23007KT 10SM OVC028 M05/M08 A3001 RMK AO2 T10501084
KFEP 150515Z AUTO 23008KT 10SM BKN028 OVC090 M05/M08 A3002 RMK AO2 T10501085
KFEP 150455Z AUTO 23007KT 10SM SCT028 OVC090 M05/M08 A3003 RMK AO2 T10501085
KFEP 150435Z AUTO 23007KT 10SM BKN026 OVC090 M05/M09 A3002 RMK AO2 T10501086
KFEP 150415Z AUTO 23007KT 10SM OVC026 M05/M09 A3003 RMK AO2 T10501087
KFEP 150355Z AUTO 22008KT 10SM OVC026 M05/M09 A3004 RMK AO2 T10501086
KFEP 150335Z AUTO 23006KT 10SM OVC026 M05/M09 A3006 RMK AO2 T10531088
KFEP 150315Z AUTO 22007KT 10SM OVC028 M06/M09 A3006 RMK AO2 T10581095
KFEP 150255Z AUTO 21008KT 10SM OVC028 M06/M10 A3006 RMK AO2 T10611105
KFEP 150235Z AUTO 22008KT 10SM OVC028 M06/M11 A3006 RMK AO2 T10651112
KFEP 150215Z AUTO 20008KT 10SM OVC030 M07/M12 A3007 RMK AO2 T10701122
KFEP 150200Z AUTO 20007KT 10SM OVC030 M08/M12 A3007 RMK AO2 T10791125
KFEP 150140Z AUTO 19008KT 10SM BKN032 M08/M13 A3007 RMK AO2 T10841129
KFEP 150115Z AUTO 19007KT 10SM CLR M09/M13 A3008 RMK AO2 T10861130
KFEP 150055Z AUTO 20005KT 10SM CLR M09/M13 A3007 RMK AO2 T10951131
KFEP 150035Z AUTO 22006KT 10SM CLR M08/M13 A3007 RMK AO2 T10791126
KFEP 150015Z AUTO 23005KT 10SM CLR M08/M13 A3008 RMK AO2 T10771126
KFEP 142355Z AUTO 23005KT 10SM CLR M07/M13 A3008 RMK AO2 T10721127 11036 21077
KFEP 142335Z AUTO 23006KT 10SM CLR M07/M12 A3008 RMK AO2 T10701125
KFEP 142315Z AUTO 23005KT 10SM CLR M07/M12 A3008 RMK AO2 T10691123
KFEP 142255Z AUTO 22007KT 10SM CLR M07/M12 A3008 RMK AO2 T10731120
KFEP 142235Z AUTO 21007KT 10SM CLR M07/M12 A3007 RMK AO2 T10671117
KFEP 142215Z AUTO 22008KT 10SM CLR M06/M12 A3007 RMK AO2 T10591116
KFEP 142155Z AUTO 22010KT 10SM CLR M05/M11 A3007 RMK AO2 T10511109
KFEP 142135Z AUTO 23008KT 10SM CLR M05/M10 A3007 RMK AO2 T10471105
KFEP 142115Z AUTO 22008KT 10SM CLR M04/M11 A3006 RMK AO2 T10401111
KFEP 142055Z AUTO 22004KT 10SM CLR M04/M11 A3006 RMK AO2 T10401110
KFEP 142035Z AUTO 23004KT 10SM CLR M04/M11 A3006 RMK AO2 T10371109
KFEP 142015Z AUTO 26005KT 10SM CLR M04/M11 A3006 RMK AO2 T10381106
KFEP 141955Z AUTO 00000KT 10SM CLR M04/M11 A3006 RMK AO2 T10401110
KFEP 141935Z AUTO 00000KT 10SM CLR M04/M11 A3006 RMK AO2 T10431112
KFEP 141915Z AUTO 23003KT 10SM CLR M04/M11 A3007 RMK AO2 T10401109
KFEP 141855Z AUTO 00000KT 10SM CLR M04/M11 A3007 RMK AO2 T10401110
KFEP 141835Z AUTO 00000KT 10SM CLR M04/M11 A3008 RMK AO2 T10451114
KFEP 141815Z AUTO 25003KT 10SM CLR M05/M11 A3008 RMK AO2 T10461113
KFEP 141755Z AUTO 00000KT 10SM CLR M05/M12 A3008 RMK AO2 T10521117 11050 21130
KFEP 141735Z AUTO 00000KT 10SM CLR M05/M12 A3009 RMK AO2 T10551117
KFEP 141715Z AUTO 00000KT 10SM CLR M06/M12 A3010 RMK AO2 T10591117
KFEP 141655Z AUTO 00000KT 10SM CLR M06/M11 A3011 RMK AO2 T10611115
KFEP 141635Z AUTO 29003KT 10SM CLR M06/M11 A3011 RMK AO2 T10651110
KFEP 141615Z AUTO 33003KT 10SM CLR M07/M11 A3011 RMK AO2 T10691109
KFEP 141555Z AUTO 34003KT 10SM CLR M07/M11 A3011 RMK AO2 T10711108
KFEP 141535Z AUTO 00000KT 10SM CLR M08/M12 A3011 RMK AO2 T10801116
KFEP 141515Z AUTO 00000KT 10SM CLR M09/M12 A3010 RMK AO2 T10951118
KFEP 141455Z AUTO 00000KT 10SM CLR M11/M13 A3009 RMK AO2 T11101132
KFEP 141435Z AUTO 00000KT 10SM CLR M11/M13 A3008 RMK AO2 T11121133
KFEP 141415Z AUTO 00000KT 10SM CLR M12/M14 A3008 RMK AO2 T11161136
KFEP 141355Z AUTO 35004KT 10SM CLR M12/M14 A3007 RMK AO2 T11211141
KFEP 141335Z AUTO 34006KT 10SM CLR M12/M15 A3007 RMK AO2 T11251148
KFEP 141315Z AUTO 32003KT 10SM CLR M11/M13 A3006 RMK AO2 T11111135
KFEP 141255Z AUTO 00000KT 10SM CLR M12/M14 A3005 RMK AO2 T11171138
KFEP 141235Z AUTO 00000KT 10SM CLR M12/M14 A3005 RMK AO2 T11161138
KFEP 141215Z AUTO 27003KT 10SM CLR M12/M14 A3005 RMK AO2 T11191142
KFEP 141155Z AUTO 26004KT 10SM CLR M11/M14 A3003 RMK AO2 T11131139 11045 21120